Aeroporto :
LOGIN :

Iscrizione | Disclaimer

   EN    FR    IT 

 










Sommario :    VFR   VFR Marginale   IFR   IFR Intensivo   IFR Molto Intensivo
Visibilità : 
Base nubi : 
>= 8 km
>= 3000ft
5 / 8 km
1000 / 3000 ft
1500m / 5 km
500 / 1000 ft
800 / 1500m
200 / 500 ft
< 800m
< 200 ft
Simboli :   Temporali  Nebbia  Neve Forte  Precipitazioni Forti  Vento > 20 kt
SIGMETs :   Varie  Temporali  Ghiacco  Turbolenza  Onda orograficha  Ceneri Vulcaniche






- Altitudine del aeroporto : 1 ft


EGCK - Caernarfon

ULTIMO METAR :
  • 150020Z AUTO 02020KT 9999 BKN024/// 07/03 Q1009

METARs OBSOLETI :
  • 142350Z AUTO 02022G32KT 9999 -RA FEW024/// BKN034/// 07/03 Q1009
  • 142320Z AUTO 02022KT 9999 -RA OVC027/// 07/03 Q1009
  • 142250Z AUTO 02022KT 9999 OVC024/// 07/03 Q1009
  • 142220Z AUTO 02021KT 9999 BKN025/// 07/03 Q1009
  • 142150Z AUTO 02024KT 9999 NCD 07/02 Q1008

TAF TAF EGCK
Valido dal 15 a 00 ore il 15 a 09 ore UTC


142310Z 1500/1509 02020KT 9999 SCT020
TEMPO 1500/1509 03025G35KT
PROB30
TEMPO 1500/1509 8000 -RA BKN010



MetMap, La meteo Aeronautica in un colpo d'occhio ! - Copyright ORBIFLY Dicembre 2007 - Disclaimer

ORBIFLY MET'MAP TEAM :

Programmazione e sviluppo : Alexandra Zaïnal
Concezione e sviluppo : Baudouin d'Aumeries
Co-Programmazione e sviluppo : Marc-Olivier Méhu
Supporto tecnico e logistico : Manuel Goepfert
Aiuto per la traduzione : Arnaldo La Scala

Contatto : metmap@orbifly.com




FONTI E CREDITI :

   NOAA